Tropical Cyclones
[Index]
Main Index Home Page Stock Weather Photos Extreme Storms Discussion Storm News and Storm Chasing Reports Tropical Cyclones / Hurricanes / Typhoons Weather Data and Links Wild Fires / Bushfires Weather Observation Techniques Weather Picture Catalogue Tornado Pictures and Reports Stock Video Footage and DVDs for sale
Season 1995-1996 Tropical Cyclone JACOB Track Map
Season 1995-1996 Summaries: [BoM-AU] [JTWC-AU] [JTWC-SIO] [JTWC-SPAC] [JTWC-SH]
<<- Previous TC | JTWC 1995-1996 Season | Next TC ->>

click for intensity scale information  Lat/long Grid: Show Hide

 Date Labels: Show Hide

Joint Typhoon Warning Centre Cyclone Data

Name: JACOB

25 Jan 1996 12:00 UTC to 08 Feb 1996 12:00 UTC

    date/time    lat    long     hPa   cat  kts
1996-01-25 12   14.0   142.7                  15          
1996-01-25 18   14.0   142.4                  15          
1996-01-26 00   14.0   142.0                  15          
1996-01-26 06   14.0   141.3                  20          
1996-01-26 12   14.0   140.9                  20          
1996-01-26 18   14.0   140.5                  20          
1996-01-27 00   14.0   140.2                  20          
1996-01-27 06   14.2   139.7                  20          
1996-01-27 12   14.7   139.0                  25          
1996-01-27 18   15.0   138.3                  30          
1996-01-28 00   15.3   137.7            1     40          
1996-01-28 06   15.6   137.1            1     50          
1996-01-28 12   15.9   136.6            1     50          
1996-01-28 18   16.4   135.8            1     40          
1996-01-29 00   16.6   135.0                  35          
1996-01-29 06   16.7   133.9                  30          
1996-01-29 12   16.8   133.3                  30          
1996-01-29 18   16.9   132.7                  30          
1996-01-30 00   17.0   131.8                  30          
1996-01-30 06   16.9   131.1                  25          
1996-01-30 12   16.7   130.4                  25          
1996-01-30 18   16.4   130.1                  25          
1996-01-31 00   16.2   129.9                  25          
1996-01-31 06   16.0   129.5                  25          
1996-01-31 12   15.7   129.1                  25          
1996-01-31 18   15.3   128.5                  25          
1996-02-01 00   14.8   128.0                  25          
1996-02-01 06   14.4   127.4                  25          
1996-02-01 12   14.1   126.5                  30          
1996-02-01 18   14.2   125.3                  30          
1996-02-02 00   14.7   124.2                  35          
1996-02-02 06   15.4   123.2            1     40          
1996-02-02 12   16.1   122.2            1     45          
1996-02-02 18   16.7   121.0            1     45          
1996-02-03 00   17.0   119.9            2     55          
1996-02-03 06   17.3   118.8            2     65          
1996-02-03 12   17.6   117.9            3     75          
1996-02-03 18   17.9   117.3            3     90          
1996-02-04 00   18.3   116.7            3     90          
1996-02-04 06   18.7   116.1            3     90          
1996-02-04 12   19.2   115.4            3     90          
1996-02-04 18   19.9   114.4            3     90          
1996-02-05 00   20.9   113.3            3     90          
1996-02-05 06   21.9   112.1            3     90          
1996-02-05 12   22.5   111.2            3     90          
1996-02-05 18   22.8   110.4            3     85          
1996-02-06 00   23.0   109.8            3     80          
1996-02-06 06   23.2   109.5            2     60          
1996-02-06 12   23.5   109.3            1     50          
1996-02-06 18   24.0   109.0            1     45          
1996-02-07 00   24.3   108.5                  35          
1996-02-07 06   24.4   107.9                  30          
1996-02-07 12   24.6   107.2                  25          
1996-02-07 18   24.8   106.8                  25          
1996-02-08 00   25.0   106.5                  25          
1996-02-08 06   25.4   105.9                  20          
1996-02-08 12   25.7   105.4                  20          
Winds are 1-min average.

Tropical cyclone tracks developed by Michael Bath using data from the Joint Typhoon Warning Centre Best Tracks and Google Maps.


[Australian Severe Weather index] [Copyright Notice] [Email Contacts] [Search This Site] [Privacy Policy]
Document: tropical_cyclone_jacob.htm Updated: 18 September 2016